createdAt,value
2018-03-11T00:00:28.879Z,14.43
2018-03-11T00:02:56.514Z,14.44
2018-03-11T00:05:24.064Z,14.43
2018-03-11T00:07:51.643Z,14.42
2018-03-11T00:10:19.181Z,14.42
2018-03-11T00:12:46.764Z,14.43
2018-03-11T00:15:14.310Z,14.40
2018-03-11T00:17:41.826Z,14.36
2018-03-11T00:20:09.415Z,14.36
2018-03-11T00:22:36.947Z,14.36
2018-03-11T00:25:04.541Z,14.35
2018-03-11T00:27:32.131Z,14.34
2018-03-11T00:29:59.661Z,14.34
2018-03-11T00:32:27.251Z,14.34
2018-03-11T00:34:54.786Z,14.33
2018-03-11T00:37:22.400Z,14.32
2018-03-11T00:39:49.935Z,14.33
2018-03-11T00:42:17.630Z,14.33
2018-03-11T00:44:45.177Z,14.33
2018-03-11T00:47:12.844Z,14.35
2018-03-11T00:49:40.408Z,14.34
2018-03-11T00:52:08.010Z,14.34
2018-03-11T00:54:35.557Z,14.36
2018-03-11T00:57:03.154Z,14.36
2018-03-11T00:59:30.722Z,14.37
2018-03-11T01:01:58.321Z,14.39
2018-03-11T01:04:26.727Z,14.38
2018-03-11T01:06:54.347Z,14.37
2018-03-11T01:09:21.947Z,14.36
2018-03-11T01:11:49.540Z,14.35
2018-03-11T01:14:17.167Z,14.34
2018-03-11T01:16:44.750Z,14.33
2018-03-11T01:19:12.358Z,14.34
2018-03-11T01:21:40.146Z,14.22
2018-03-11T01:24:07.742Z,14.29
2018-03-11T01:26:35.332Z,14.26
2018-03-11T01:29:02.931Z,14.24
2018-03-11T01:31:30.542Z,14.25
2018-03-11T01:33:58.129Z,14.20
2018-03-11T01:36:25.752Z,14.20
2018-03-11T01:38:53.314Z,14.17
2018-03-11T01:41:20.888Z,14.03
2018-03-11T01:43:48.452Z,14.16
2018-03-11T01:46:15.983Z,14.02
2018-03-11T01:48:43.521Z,14.08
2018-03-11T01:51:11.074Z,14.07
2018-03-11T01:53:38.610Z,14.02
2018-03-11T01:56:06.202Z,14.04
2018-03-11T01:58:33.773Z,14.02
2018-03-11T02:01:01.417Z,14.00
2018-03-11T02:03:29.005Z,13.98
2018-03-11T02:05:56.584Z,13.96
2018-03-11T02:08:24.173Z,13.82
2018-03-11T02:10:51.781Z,13.93
2018-03-11T02:13:19.381Z,13.88
2018-03-11T02:15:46.920Z,13.86
2018-03-11T02:18:14.511Z,13.84
2018-03-11T02:20:42.051Z,13.80
2018-03-11T02:23:09.637Z,13.78
2018-03-11T02:25:37.226Z,13.77
2018-03-11T02:28:04.796Z,13.69
2018-03-11T02:30:32.509Z,13.70
2018-03-11T02:33:00.042Z,13.68
2018-03-11T02:35:27.620Z,13.68
2018-03-11T02:37:55.157Z,13.66
2018-03-11T02:40:22.756Z,13.67
2018-03-11T02:42:50.385Z,13.64
2018-03-11T02:45:18.043Z,13.64
2018-03-11T02:47:45.555Z,13.62
2018-03-11T02:50:13.139Z,13.60
2018-03-11T02:52:40.700Z,13.60
2018-03-11T02:55:08.363Z,13.58
2018-03-11T02:57:35.914Z,13.59
2018-03-11T03:00:05.068Z,13.57
2018-03-11T03:02:32.661Z,13.55
2018-03-11T03:05:00.224Z,13.53
2018-03-11T03:07:27.804Z,13.49
2018-03-11T03:09:55.382Z,13.47
2018-03-11T03:12:23.017Z,13.44
2018-03-11T03:14:50.577Z,13.42
2018-03-11T03:17:18.110Z,13.38
2018-03-11T03:19:45.691Z,13.35
2018-03-11T03:22:13.399Z,13.33
2018-03-11T03:24:40.966Z,13.29
2018-03-11T03:27:08.589Z,13.27
2018-03-11T03:29:36.176Z,13.26
2018-03-11T03:32:03.800Z,13.23
2018-03-11T03:34:31.331Z,13.19
2018-03-11T03:36:58.878Z,13.20
2018-03-11T03:39:26.462Z,13.16
2018-03-11T03:41:54.039Z,13.15
2018-03-11T03:44:21.786Z,13.17
2018-03-11T03:46:49.404Z,13.13
2018-03-11T03:49:16.981Z,13.10
2018-03-11T03:51:44.612Z,13.07
2018-03-11T03:54:12.202Z,13.06
2018-03-11T03:56:39.811Z,13.04
2018-03-11T03:59:07.392Z,13.01
2018-03-11T04:01:35.006Z,13.02
2018-03-11T04:04:02.614Z,12.99
2018-03-11T04:06:30.220Z,12.98
2018-03-11T04:08:57.794Z,12.94
2018-03-11T04:11:25.352Z,12.93
2018-03-11T04:13:52.893Z,12.91
2018-03-11T04:16:20.501Z,12.89
2018-03-11T04:18:48.063Z,12.88
2018-03-11T04:21:15.652Z,12.84
2018-03-11T04:23:43.280Z,12.86
2018-03-11T04:26:10.877Z,12.84
2018-03-11T04:28:38.444Z,12.79
2018-03-11T04:31:06.088Z,12.79
2018-03-11T04:33:33.674Z,12.75
2018-03-11T04:36:01.224Z,12.76
2018-03-11T04:38:28.786Z,12.76
2018-03-11T04:40:56.383Z,12.77
2018-03-11T04:43:23.930Z,12.79
2018-03-11T04:45:51.537Z,12.78
2018-03-11T04:48:19.099Z,12.81
2018-03-11T04:50:46.786Z,12.77
2018-03-11T04:53:14.350Z,12.85
2018-03-11T04:55:41.953Z,12.91
2018-03-11T04:58:09.592Z,12.93
2018-03-11T05:00:37.217Z,13.04
2018-03-11T05:03:04.829Z,13.18
2018-03-11T05:05:32.353Z,13.33
2018-03-11T05:07:59.969Z,13.55
2018-03-11T05:10:27.582Z,13.80
2018-03-11T05:12:55.126Z,14.03
2018-03-11T05:15:22.741Z,14.28
2018-03-11T05:17:50.321Z,14.59
2018-03-11T05:20:17.919Z,14.95
2018-03-11T05:22:45.526Z,15.26
2018-03-11T05:25:13.123Z,15.70
2018-03-11T05:27:40.696Z,16.21
2018-03-11T05:30:09.113Z,16.73
2018-03-11T05:32:36.634Z,17.24
2018-03-11T05:35:04.268Z,17.75
2018-03-11T05:37:31.834Z,18.22
2018-03-11T05:39:59.414Z,18.68
2018-03-11T05:42:26.956Z,19.17
2018-03-11T05:44:54.554Z,19.68
2018-03-11T05:47:22.127Z,20.24
2018-03-11T05:49:49.760Z,20.85
2018-03-11T05:52:17.353Z,21.49
2018-03-11T05:54:44.960Z,22.14
2018-03-11T05:57:12.512Z,22.74
2018-03-11T05:59:41.167Z,23.30
2018-03-11T06:02:08.845Z,23.91
2018-03-11T06:04:37.211Z,24.33
2018-03-11T06:07:04.778Z,24.83
2018-03-11T06:09:33.366Z,25.33
2018-03-11T06:12:00.907Z,25.98
2018-03-11T06:14:28.471Z,26.47
2018-03-11T06:16:56.049Z,26.99
2018-03-11T06:19:23.638Z,27.51
2018-03-11T06:21:51.183Z,27.92
2018-03-11T06:24:18.750Z,28.54
2018-03-11T06:26:46.314Z,29.09
2018-03-11T06:29:13.885Z,29.64
2018-03-11T06:31:41.505Z,30.15
2018-03-11T06:34:09.160Z,30.89
2018-03-11T06:36:37.097Z,31.45
2018-03-11T06:39:04.692Z,32.06
2018-03-11T06:41:32.241Z,32.62
2018-03-11T06:43:59.819Z,33.04
2018-03-11T06:46:27.454Z,33.52
2018-03-11T06:48:55.004Z,33.86
2018-03-11T06:51:22.651Z,34.25
2018-03-11T06:53:50.232Z,34.62
2018-03-11T06:56:17.798Z,35.07
2018-03-11T06:58:45.448Z,35.41
2018-03-11T07:01:13.066Z,35.87
2018-03-11T07:03:40.585Z,36.36
2018-03-11T07:06:08.224Z,36.79
2018-03-11T07:08:35.896Z,37.20
2018-03-11T07:11:03.444Z,37.51
2018-03-11T07:13:31.032Z,37.79
2018-03-11T07:15:58.648Z,38.01
2018-03-11T07:18:26.286Z,38.36
2018-03-11T07:20:53.841Z,38.67
2018-03-11T07:23:21.415Z,38.84
2018-03-11T07:25:48.945Z,39.10
2018-03-11T07:28:16.542Z,38.97
2018-03-11T07:30:44.375Z,37.94
2018-03-11T07:33:11.927Z,36.78
2018-03-11T07:35:39.523Z,35.96
2018-03-11T07:38:07.161Z,35.77
2018-03-11T07:40:34.747Z,34.87
2018-03-11T07:43:02.366Z,34.58
2018-03-11T07:45:29.984Z,34.65
2018-03-11T07:47:57.633Z,34.80
2018-03-11T07:50:25.352Z,34.75
2018-03-11T07:52:53.006Z,34.65
2018-03-11T07:55:20.585Z,35.04
2018-03-11T07:57:48.255Z,35.10
2018-03-11T08:00:18.801Z,34.16
2018-03-11T08:02:46.387Z,34.80
2018-03-11T08:05:28.202Z,35.42
2018-03-11T08:07:55.816Z,35.51
2018-03-11T08:10:27.648Z,36.09
2018-03-11T08:12:59.728Z,36.69
2018-03-11T08:15:27.352Z,37.15
2018-03-11T08:17:54.976Z,36.96
2018-03-11T08:20:22.611Z,37.28
2018-03-11T08:22:51.016Z,37.18
2018-03-11T08:25:18.638Z,36.70
2018-03-11T08:27:46.264Z,36.62
2018-03-11T08:30:13.899Z,36.54
2018-03-11T08:32:41.551Z,36.94
2018-03-11T08:35:09.128Z,36.88
2018-03-11T08:37:36.721Z,37.37
2018-03-11T08:40:04.302Z,37.54
2018-03-11T08:42:31.905Z,37.63
2018-03-11T08:44:59.521Z,38.03
2018-03-11T08:47:27.858Z,38.40
2018-03-11T08:49:55.438Z,38.66
2018-03-11T08:52:23.045Z,38.78
2018-03-11T08:54:50.678Z,38.86
2018-03-11T08:57:18.281Z,39.15
2018-03-11T08:59:45.950Z,39.48
2018-03-11T09:02:13.572Z,39.50
2018-03-11T09:04:41.228Z,39.45
2018-03-11T09:07:08.829Z,39.77
2018-03-11T09:09:36.473Z,40.03
2018-03-11T09:12:04.672Z,40.30
2018-03-11T09:14:32.292Z,40.67
2018-03-11T09:16:59.936Z,40.87
2018-03-11T09:19:28.260Z,41.05
2018-03-11T09:21:55.853Z,41.38
2018-03-11T09:24:23.475Z,41.67
2018-03-11T09:26:53.289Z,41.97
2018-03-11T09:29:20.858Z,42.35
2018-03-11T09:31:48.467Z,42.53
2018-03-11T09:34:16.020Z,42.39
2018-03-11T09:36:43.576Z,42.19
2018-03-11T09:39:11.194Z,42.23
2018-03-11T09:41:38.796Z,42.00
2018-03-11T09:44:06.382Z,41.59
2018-03-11T09:46:34.010Z,40.78
2018-03-11T09:49:02.412Z,40.46
2018-03-11T09:51:29.995Z,40.63
2018-03-11T09:53:57.581Z,40.73
2018-03-11T09:56:25.179Z,40.83
2018-03-11T09:58:52.745Z,40.80
2018-03-11T10:01:20.452Z,40.62
2018-03-11T10:03:48.042Z,40.38
2018-03-11T10:06:15.599Z,40.11
2018-03-11T10:08:43.441Z,39.66
2018-03-11T10:11:11.043Z,39.48
2018-03-11T10:13:38.603Z,39.12
2018-03-11T10:16:06.228Z,39.53
2018-03-11T10:18:33.846Z,39.75
2018-03-11T10:21:01.449Z,39.68
2018-03-11T10:23:29.027Z,39.28
2018-03-11T10:25:56.624Z,39.36
2018-03-11T10:28:24.247Z,39.26
2018-03-11T10:30:51.876Z,39.47
2018-03-11T10:33:19.439Z,39.71
2018-03-11T10:35:47.008Z,40.25
2018-03-11T10:38:14.724Z,41.06
2018-03-11T10:40:42.300Z,41.86
2018-03-11T10:43:09.867Z,42.33
2018-03-11T10:45:37.482Z,42.95
2018-03-11T10:48:05.002Z,43.82
2018-03-11T10:50:32.583Z,44.71
2018-03-11T10:53:00.208Z,45.57
2018-03-11T10:55:27.785Z,45.95
2018-03-11T10:57:55.377Z,46.83
2018-03-11T11:00:32.913Z,47.22
2018-03-11T11:03:06.136Z,48.38
2018-03-11T11:05:33.786Z,49.00
2018-03-11T11:08:01.405Z,49.39
2018-03-11T11:10:29.004Z,50.24
2018-03-11T11:12:56.687Z,49.93
2018-03-11T11:15:24.287Z,51.15
2018-03-11T11:17:51.887Z,51.43
2018-03-11T11:20:19.545Z,51.96
2018-03-11T11:22:47.146Z,52.45
2018-03-11T11:25:14.827Z,52.54
2018-03-11T11:27:42.513Z,52.72
2018-03-11T11:30:10.193Z,52.70
2018-03-11T11:32:37.782Z,52.98
2018-03-11T11:35:05.287Z,53.31
2018-03-11T11:37:34.040Z,53.66
2018-03-11T11:40:01.634Z,53.40
2018-03-11T11:42:29.218Z,53.26
2018-03-11T11:44:56.820Z,53.39
2018-03-11T11:47:24.381Z,53.22
2018-03-11T11:49:51.955Z,52.30
2018-03-11T11:52:19.555Z,49.30
2018-03-11T11:54:47.103Z,44.97
2018-03-11T11:57:14.697Z,41.03
2018-03-11T11:59:42.273Z,38.20
2018-03-11T12:02:10.798Z,36.11
2018-03-11T12:04:38.393Z,34.33
2018-03-11T12:07:06.028Z,32.61
2018-03-11T12:09:33.662Z,31.74
2018-03-11T12:12:01.231Z,31.14
2018-03-11T12:14:28.842Z,30.65
2018-03-11T12:16:56.450Z,30.20
2018-03-11T12:19:24.043Z,29.99
2018-03-11T12:21:51.618Z,29.78
2018-03-11T12:24:19.229Z,29.68
2018-03-11T12:26:46.846Z,29.56
2018-03-11T12:29:14.358Z,29.42
2018-03-11T12:31:42.297Z,29.35
2018-03-11T12:34:09.911Z,29.35
2018-03-11T12:36:37.488Z,29.23
2018-03-11T12:39:05.872Z,29.40
2018-03-11T12:41:33.386Z,29.37
2018-03-11T12:44:01.001Z,29.38
2018-03-11T12:46:29.513Z,29.33
2018-03-11T12:48:57.112Z,29.38
2018-03-11T12:51:24.764Z,29.31
2018-03-11T12:53:52.364Z,28.72
2018-03-11T12:56:19.982Z,28.97
2018-03-11T12:58:47.813Z,28.81
2018-03-11T13:01:15.432Z,28.90
2018-03-11T13:03:43.044Z,28.59
2018-03-11T13:06:10.656Z,28.43
2018-03-11T13:08:38.248Z,28.42
2018-03-11T13:11:05.806Z,27.95
2018-03-11T13:13:34.375Z,28.06
2018-03-11T13:16:01.960Z,28.04
2018-03-11T13:18:29.677Z,28.04
2018-03-11T13:21:11.258Z,28.01
2018-03-11T13:23:38.929Z,27.52
2018-03-11T13:26:06.508Z,27.36
2018-03-11T13:28:45.972Z,26.91
2018-03-11T13:31:13.540Z,26.72
2018-03-11T13:33:52.809Z,26.73
2018-03-11T13:36:20.647Z,26.71
2018-03-11T13:38:59.960Z,26.63
2018-03-11T13:41:27.660Z,26.29
2018-03-11T13:43:55.306Z,26.12
2018-03-11T13:46:34.645Z,25.52
2018-03-11T13:49:02.274Z,25.42
2018-03-11T13:51:41.622Z,25.39
2018-03-11T13:54:09.198Z,25.40
2018-03-11T13:56:36.774Z,25.36
2018-03-11T13:59:04.444Z,25.32
2018-03-11T14:01:32.084Z,25.23
2018-03-11T14:03:59.679Z,25.07
2018-03-11T14:06:27.291Z,24.92
2018-03-11T14:08:54.869Z,24.84
2018-03-11T14:11:22.420Z,24.74
2018-03-11T14:13:49.989Z,24.64
2018-03-11T14:16:22.602Z,24.53
2018-03-11T14:18:50.340Z,24.39
2018-03-11T14:21:17.894Z,24.42
2018-03-11T14:23:45.469Z,24.39
2018-03-11T14:26:13.021Z,24.32
2018-03-11T14:28:40.614Z,24.22
2018-03-11T14:31:08.350Z,24.28
2018-03-11T14:33:35.897Z,24.23
2018-03-11T14:36:03.804Z,24.17
2018-03-11T14:38:31.754Z,24.00
2018-03-11T14:40:59.316Z,23.77
2018-03-11T14:43:28.132Z,23.63
2018-03-11T14:45:56.196Z,23.24
2018-03-11T14:48:24.920Z,23.04
2018-03-11T14:50:52.521Z,22.90
2018-03-11T14:53:20.356Z,22.86
2018-03-11T14:55:47.983Z,22.69
2018-03-11T14:58:15.556Z,22.62
2018-03-11T15:00:43.115Z,22.73
2018-03-11T15:03:10.652Z,22.72
2018-03-11T15:05:38.313Z,22.54
2018-03-11T15:08:06.541Z,22.42
2018-03-11T15:10:34.158Z,22.42
2018-03-11T15:13:02.356Z,22.42
2018-03-11T15:15:30.034Z,22.11
2018-03-11T15:17:57.613Z,21.82
2018-03-11T15:20:25.202Z,22.08
2018-03-11T15:22:52.739Z,21.93
2018-03-11T15:25:20.412Z,22.05
2018-03-11T15:27:48.096Z,22.07
2018-03-11T15:30:15.681Z,21.98
2018-03-11T15:32:43.786Z,21.94
2018-03-11T15:35:11.471Z,21.83
2018-03-11T15:37:39.219Z,21.90
2018-03-11T15:40:07.129Z,21.84
2018-03-11T15:42:35.591Z,21.84
2018-03-11T15:45:03.304Z,21.88
2018-03-11T15:47:31.309Z,21.69
2018-03-11T15:49:59.305Z,21.57
2018-03-11T15:52:27.226Z,21.36
2018-03-11T15:54:55.503Z,21.40
2018-03-11T15:57:23.798Z,21.30
2018-03-11T15:59:51.382Z,21.28
2018-03-11T16:02:19.460Z,21.18
2018-03-11T16:04:47.245Z,20.99
2018-03-11T16:07:15.533Z,20.85
2018-03-11T16:09:43.668Z,20.76
2018-03-11T16:12:11.856Z,20.89
2018-03-11T16:14:41.414Z,21.08
2018-03-11T16:17:09.665Z,21.14
2018-03-11T16:19:37.272Z,21.17
2018-03-11T16:22:05.490Z,21.04
2018-03-11T16:24:39.617Z,20.89
2018-03-11T16:27:00.845Z,20.91
2018-03-11T16:29:28.519Z,20.85
2018-03-11T16:31:56.142Z,20.68
2018-03-11T16:34:23.733Z,20.43
2018-03-11T16:36:51.297Z,20.46
2018-03-11T16:39:19.624Z,20.30
2018-03-11T16:41:47.329Z,20.14
2018-03-11T16:44:15.308Z,20.18
2018-03-11T16:46:43.190Z,20.19
2018-03-11T16:49:11.482Z,20.24
2018-03-11T16:51:39.599Z,20.28
2018-03-11T16:54:07.604Z,20.24
2018-03-11T16:56:35.599Z,20.03
2018-03-11T16:59:04.000Z,19.94
2018-03-11T17:01:31.986Z,19.82
2018-03-11T17:03:59.730Z,19.72
2018-03-11T17:06:27.390Z,19.70
2018-03-11T17:08:55.399Z,19.77
2018-03-11T17:11:23.283Z,19.58
2018-03-11T17:13:51.265Z,19.67
2018-03-11T17:16:19.200Z,19.62
2018-03-11T17:18:47.260Z,19.48
2018-03-11T17:21:14.930Z,19.47
2018-03-11T17:23:42.946Z,19.29
2018-03-11T17:26:11.047Z,19.24
2018-03-11T17:28:38.674Z,18.78
2018-03-11T17:31:08.055Z,18.79
2018-03-11T17:33:35.844Z,18.76
2018-03-11T17:36:03.490Z,18.69
2018-03-11T17:38:32.014Z,18.73
2018-03-11T17:41:00.136Z,18.68
2018-03-11T17:43:27.827Z,18.37
2018-03-11T17:45:56.024Z,18.51
2018-03-11T17:48:24.072Z,18.46
2018-03-11T17:50:52.570Z,18.57
2018-03-11T17:53:20.654Z,18.83
2018-03-11T17:55:48.497Z,18.87
2018-03-11T17:58:16.749Z,18.82
2018-03-11T18:00:44.481Z,18.62
2018-03-11T18:03:12.174Z,18.36
2018-03-11T18:05:39.832Z,18.47
2018-03-11T18:08:07.565Z,18.40
2018-03-11T18:10:35.242Z,18.43
2018-03-11T18:13:03.206Z,18.44
2018-03-11T18:15:31.019Z,18.32
2018-03-11T18:17:59.178Z,18.06
2018-03-11T18:20:26.918Z,18.03
2018-03-11T18:22:55.970Z,17.71
2018-03-11T18:25:23.886Z,17.60
2018-03-11T18:27:51.687Z,17.29
2018-03-11T18:30:19.490Z,17.16
2018-03-11T18:32:47.649Z,17.05
2018-03-11T18:35:16.116Z,16.93
2018-03-11T18:37:44.357Z,16.82
2018-03-11T18:40:12.594Z,16.65
2018-03-11T18:42:41.038Z,16.60
2018-03-11T18:45:09.019Z,16.42
2018-03-11T18:47:36.780Z,16.34
2018-03-11T18:50:05.234Z,16.23
2018-03-11T18:52:33.708Z,16.19
2018-03-11T18:55:02.217Z,16.15
2018-03-11T18:57:31.024Z,16.06
2018-03-11T18:59:59.541Z,15.97
2018-03-11T19:02:28.126Z,16.22
2018-03-11T19:04:56.633Z,16.21
2018-03-11T19:07:24.388Z,16.28
2018-03-11T19:09:52.283Z,16.34
2018-03-11T19:12:20.549Z,16.23
2018-03-11T19:14:48.369Z,15.92
2018-03-11T19:17:16.856Z,16.04
2018-03-11T19:19:44.598Z,16.04
2018-03-11T19:22:12.282Z,16.17
2018-03-11T19:24:40.501Z,16.10
2018-03-11T19:27:08.072Z,16.00
2018-03-11T19:29:35.998Z,15.77
2018-03-11T19:32:03.892Z,15.77
2018-03-11T19:34:31.712Z,15.75
2018-03-11T19:36:59.464Z,15.70
2018-03-11T19:39:29.030Z,15.56
2018-03-11T19:41:56.794Z,15.46
2018-03-11T19:44:24.799Z,15.98
2018-03-11T19:46:52.624Z,16.40
2018-03-11T19:49:20.166Z,16.56
2018-03-11T19:51:47.817Z,16.52
2018-03-11T19:54:16.127Z,16.73
2018-03-11T19:56:44.146Z,16.81
2018-03-11T19:59:12.169Z,16.84
2018-03-11T20:01:39.900Z,16.86
2018-03-11T20:04:07.536Z,16.87
2018-03-11T20:06:35.665Z,16.94
2018-03-11T20:09:03.326Z,16.96
2018-03-11T20:11:31.019Z,16.95
2018-03-11T20:13:58.546Z,16.99
2018-03-11T20:16:26.107Z,16.99
2018-03-11T20:18:53.626Z,17.05
2018-03-11T20:21:21.910Z,17.06
2018-03-11T20:23:49.456Z,17.06
2018-03-11T20:26:17.013Z,17.06
2018-03-11T20:28:44.670Z,17.05
2018-03-11T20:31:12.298Z,17.07
2018-03-11T20:33:40.919Z,17.02
2018-03-11T20:36:09.027Z,17.08
2018-03-11T20:38:36.560Z,17.05
2018-03-11T20:41:04.142Z,17.09
2018-03-11T20:43:31.703Z,17.09
2018-03-11T20:45:59.276Z,17.13
2018-03-11T20:48:26.937Z,17.11
2018-03-11T20:50:54.488Z,17.11
2018-03-11T20:53:22.013Z,17.08
2018-03-11T20:55:49.539Z,17.11
2018-03-11T20:58:17.127Z,17.05
2018-03-11T21:00:44.796Z,17.11
2018-03-11T21:03:12.390Z,17.10
2018-03-11T21:05:39.908Z,17.05
2018-03-11T21:08:07.468Z,17.10
2018-03-11T21:10:35.282Z,17.08
2018-03-11T21:13:02.849Z,17.03
2018-03-11T21:15:30.376Z,17.03
2018-03-11T21:17:57.900Z,17.01
2018-03-11T21:20:25.417Z,17.02
2018-03-11T21:22:52.942Z,16.98
2018-03-11T21:25:20.692Z,16.99
2018-03-11T21:27:48.240Z,16.99
2018-03-11T21:30:30.714Z,16.98
2018-03-11T21:32:58.261Z,16.97
2018-03-11T21:35:25.835Z,16.95
2018-03-11T21:37:53.364Z,16.93
2018-03-11T21:40:20.876Z,16.93
2018-03-11T21:42:48.406Z,16.92
2018-03-11T21:45:15.985Z,16.88
2018-03-11T21:47:43.548Z,16.86
2018-03-11T21:50:11.201Z,17.31
2018-03-11T21:52:38.716Z,17.46
2018-03-11T21:55:06.243Z,17.35
2018-03-11T21:57:33.777Z,17.27
2018-03-11T22:00:01.367Z,17.18
2018-03-11T22:02:28.907Z,17.15
2018-03-11T22:04:56.523Z,17.11
2018-03-11T22:07:24.085Z,17.10
2018-03-11T22:09:51.638Z,17.07
2018-03-11T22:12:19.173Z,17.05
2018-03-11T22:14:46.708Z,16.99
2018-03-11T22:17:14.224Z,17.01
2018-03-11T22:19:41.780Z,16.96
2018-03-11T22:22:09.308Z,16.94
2018-03-11T22:24:37.780Z,16.95
2018-03-11T22:27:05.319Z,16.94
2018-03-11T22:29:32.863Z,16.90
2018-03-11T22:32:00.377Z,16.89
2018-03-11T22:34:27.916Z,16.88
2018-03-11T22:36:55.496Z,16.83
2018-03-11T22:39:23.024Z,16.86
2018-03-11T22:41:50.560Z,16.83
2018-03-11T22:44:18.104Z,16.85
2018-03-11T22:46:45.650Z,16.81
2018-03-11T22:49:13.209Z,16.81
2018-03-11T22:51:40.757Z,16.74
2018-03-11T22:54:08.328Z,16.83
2018-03-11T22:56:35.900Z,16.85
2018-03-11T22:59:03.438Z,16.77
2018-03-11T23:01:30.960Z,16.82
2018-03-11T23:03:58.508Z,16.84
2018-03-11T23:06:26.091Z,16.84
2018-03-11T23:08:53.646Z,16.83
2018-03-11T23:11:21.178Z,16.85
2018-03-11T23:13:48.687Z,16.86
2018-03-11T23:16:16.241Z,16.88
2018-03-11T23:18:55.564Z,16.88
2018-03-11T23:21:23.128Z,16.90
2018-03-11T23:23:50.660Z,16.86
2018-03-11T23:26:18.193Z,16.92
2018-03-11T23:28:45.739Z,16.92
2018-03-11T23:31:13.328Z,16.86
2018-03-11T23:33:40.892Z,16.91
2018-03-11T23:36:08.426Z,16.92
2018-03-11T23:38:35.933Z,16.92
2018-03-11T23:41:03.564Z,16.92
2018-03-11T23:43:31.120Z,16.95
2018-03-11T23:45:58.701Z,16.96
2018-03-11T23:48:26.261Z,16.96
2018-03-11T23:50:53.780Z,16.93
2018-03-11T23:53:21.304Z,16.90
2018-03-11T23:55:49.064Z,16.96
2018-03-11T23:58:16.635Z,16.98
